Country
Station

 

Weather  for  Jonkoping Flygplats  -  Sweden    Sweden

  
11 °C (52 °F)
    
 
 

Current METAR for Jonkoping Flygplats is :

ESGJ 180950Z 31011KT 9999 FEW024 11/05 Q1014

 

This is a report for Jonkoping Flygplats - Sweden.
 
The report was made 26 minutes ago, at 09:50 UTC .
The wind was blowing at a speed of 5.7 meters per second (12.7 miles per hour) from northwest (310°).
 
The temperature was 11 °C (52 °F), with a dew-point at 5 °C (41 °F).
The atmospheric pressure was 1014 hPa (29.94 inHg).
The relative humidity was 66.5%.
 
There were a few clouds at a height of 732 meters (2400 feet).
 
The overall visibility was greater than 10 kilometers (6.2 miles).
 

 
 
 
 

Country :   A   B   C   D   E   F   G   H   I   J   K   L   M   N   O   P   Q   R   S   T   U   V   W   Y   Z

 

Site Info  |  Disclaimer  |  Credits  |  Privacy
Contact us  |  Add to favorites
© 2013-2019 METARs - All rights reserved